createdAt,value
2017-12-26T00:00:25.105Z,5.74
2017-12-26T00:02:53.588Z,6.06
2017-12-26T00:05:21.967Z,5.45
2017-12-26T00:07:52.250Z,5.69
2017-12-26T00:10:26.181Z,5.51
2017-12-26T00:12:54.820Z,5.47
2017-12-26T00:15:23.827Z,5.27
2017-12-26T00:17:53.408Z,5.49
2017-12-26T00:20:23.060Z,5.14
2017-12-26T00:22:51.518Z,5.12
2017-12-26T00:25:19.871Z,5.23
2017-12-26T00:27:48.224Z,5.34
2017-12-26T00:30:16.640Z,5.43
2017-12-26T00:32:45.023Z,5.66
2017-12-26T00:35:13.369Z,5.34
2017-12-26T00:37:41.766Z,5.32
2017-12-26T00:40:10.164Z,5.93
2017-12-26T00:42:38.551Z,5.44
2017-12-26T00:45:06.944Z,5.21
2017-12-26T00:47:35.303Z,5.68
2017-12-26T00:50:03.702Z,5.34
2017-12-26T00:52:32.074Z,6.20
2017-12-26T00:55:00.439Z,6.46
2017-12-26T00:57:28.838Z,6.12
2017-12-26T00:59:57.215Z,6.29
2017-12-26T01:02:25.598Z,6.20
2017-12-26T01:04:53.978Z,6.43
2017-12-26T01:07:22.332Z,6.83
2017-12-26T01:09:50.791Z,7.10
2017-12-26T01:12:19.147Z,6.90
2017-12-26T01:14:47.540Z,7.41
2017-12-26T01:17:15.956Z,7.43
2017-12-26T01:19:44.393Z,7.56
2017-12-26T01:22:12.800Z,7.22
2017-12-26T01:24:41.145Z,7.32
2017-12-26T01:27:09.526Z,6.91
2017-12-26T01:29:37.882Z,7.93
2017-12-26T01:32:06.251Z,7.34
2017-12-26T01:34:34.629Z,7.15
2017-12-26T01:37:02.999Z,8.57
2017-12-26T01:39:31.336Z,8.88
2017-12-26T01:41:59.717Z,8.09
2017-12-26T01:44:28.117Z,7.69
2017-12-26T01:46:56.505Z,8.48
2017-12-26T01:49:24.852Z,7.29
2017-12-26T01:51:53.205Z,8.16
2017-12-26T01:54:21.630Z,7.67
2017-12-26T01:56:49.992Z,7.81
2017-12-26T01:59:18.471Z,7.74
2017-12-26T02:01:46.858Z,7.63
2017-12-26T02:04:15.207Z,7.75
2017-12-26T02:06:43.756Z,8.69
2017-12-26T02:09:12.143Z,7.24
2017-12-26T02:11:40.589Z,7.10
2017-12-26T02:14:08.968Z,7.22
2017-12-26T02:16:37.304Z,7.11
2017-12-26T02:19:05.679Z,7.10
2017-12-26T02:21:34.188Z,7.36
2017-12-26T02:24:02.622Z,7.22
2017-12-26T02:26:31.016Z,7.15
2017-12-26T02:28:59.400Z,7.58
2017-12-26T02:31:27.798Z,7.27
2017-12-26T02:33:56.165Z,7.63
2017-12-26T02:36:24.641Z,7.07
2017-12-26T02:38:53.024Z,7.05
2017-12-26T02:41:21.414Z,7.35
2017-12-26T02:43:49.811Z,7.36
2017-12-26T02:46:18.144Z,7.60
2017-12-26T02:48:46.535Z,7.07
2017-12-26T02:51:15.006Z,7.11
2017-12-26T02:53:43.357Z,7.58
2017-12-26T02:56:11.908Z,7.18
2017-12-26T02:58:40.390Z,7.26
2017-12-26T03:01:08.952Z,7.01
2017-12-26T03:03:37.311Z,7.43
2017-12-26T03:06:05.748Z,7.15
2017-12-26T03:08:34.375Z,7.48
2017-12-26T03:11:02.855Z,6.75
2017-12-26T03:13:31.349Z,7.78
2017-12-26T03:15:59.779Z,7.44
2017-12-26T03:18:28.231Z,7.24
2017-12-26T03:20:56.836Z,7.29
2017-12-26T03:23:25.230Z,7.69
2017-12-26T03:25:53.617Z,7.36
2017-12-26T03:28:22.055Z,7.41
2017-12-26T03:30:50.431Z,7.03
2017-12-26T03:33:18.784Z,7.05
2017-12-26T03:35:47.144Z,7.10
2017-12-26T03:38:15.561Z,7.48
2017-12-26T03:40:43.935Z,7.27
2017-12-26T03:43:12.291Z,7.13
2017-12-26T03:45:40.779Z,7.26
2017-12-26T03:48:09.141Z,6.97
2017-12-26T03:50:37.486Z,7.21
2017-12-26T03:53:05.852Z,7.24
2017-12-26T03:55:34.204Z,7.55
2017-12-26T03:58:02.588Z,7.19
2017-12-26T04:00:38.563Z,7.27
2017-12-26T04:03:07.008Z,7.41
2017-12-26T04:05:35.344Z,7.20
2017-12-26T04:08:03.715Z,7.43
2017-12-26T04:10:32.082Z,7.23
2017-12-26T04:13:00.465Z,7.39
2017-12-26T04:15:28.877Z,7.24
2017-12-26T04:17:57.239Z,7.35
2017-12-26T04:20:25.587Z,7.23
2017-12-26T04:22:53.981Z,7.12
2017-12-26T04:25:22.332Z,8.20
2017-12-26T04:27:50.767Z,7.26
2017-12-26T04:30:19.126Z,7.74
2017-12-26T04:32:47.483Z,7.91
2017-12-26T04:35:15.907Z,7.98
2017-12-26T04:37:44.253Z,7.86
2017-12-26T04:40:12.644Z,7.97
2017-12-26T04:42:41.036Z,8.14
2017-12-26T04:45:09.404Z,7.82
2017-12-26T04:47:37.792Z,8.03
2017-12-26T04:50:06.141Z,7.85
2017-12-26T04:52:34.520Z,7.53
2017-12-26T04:55:02.888Z,8.61
2017-12-26T04:57:31.263Z,8.00
2017-12-26T04:59:59.617Z,7.73
2017-12-26T05:02:27.985Z,8.11
2017-12-26T05:04:56.373Z,8.05
2017-12-26T05:07:24.721Z,8.24
2017-12-26T05:09:53.126Z,8.10
2017-12-26T05:12:21.466Z,7.73
2017-12-26T05:14:49.820Z,8.17
2017-12-26T05:17:18.211Z,8.20
2017-12-26T05:19:46.554Z,8.24
2017-12-26T05:22:14.902Z,8.48
2017-12-26T05:24:43.276Z,8.11
2017-12-26T05:27:11.628Z,8.53
2017-12-26T05:29:40.027Z,8.21
2017-12-26T05:32:08.440Z,8.24
2017-12-26T05:34:36.814Z,8.11
2017-12-26T05:37:05.162Z,7.51
2017-12-26T05:39:33.518Z,8.20
2017-12-26T05:42:01.891Z,9.22
2017-12-26T05:44:30.286Z,8.09
2017-12-26T05:46:58.653Z,8.41
2017-12-26T05:49:27.017Z,7.52
2017-12-26T05:51:55.411Z,7.72
2017-12-26T05:54:23.779Z,7.68
2017-12-26T05:56:52.208Z,7.76
2017-12-26T05:59:20.555Z,8.04
2017-12-26T06:01:48.911Z,7.80
2017-12-26T06:04:17.291Z,9.18
2017-12-26T06:06:45.655Z,8.07
2017-12-26T06:09:14.039Z,7.77
2017-12-26T06:11:42.414Z,8.57
2017-12-26T06:14:10.806Z,7.91
2017-12-26T06:16:39.152Z,7.79
2017-12-26T06:19:07.520Z,8.06
2017-12-26T06:21:35.863Z,8.03
2017-12-26T06:24:04.243Z,8.16
2017-12-26T06:26:32.619Z,7.99
2017-12-26T06:29:00.998Z,7.71
2017-12-26T06:31:29.356Z,7.72
2017-12-26T06:33:57.712Z,8.47
2017-12-26T06:36:26.062Z,8.15
2017-12-26T06:38:54.462Z,8.08
2017-12-26T06:41:22.857Z,7.70
2017-12-26T06:43:51.240Z,8.51
2017-12-26T06:46:19.582Z,8.05
2017-12-26T06:48:47.943Z,8.30
2017-12-26T06:51:16.348Z,8.03
2017-12-26T06:53:44.707Z,7.82
2017-12-26T06:56:13.114Z,7.53
2017-12-26T06:58:41.502Z,8.34
2017-12-26T07:01:09.891Z,7.96
2017-12-26T07:03:38.231Z,7.86
2017-12-26T07:06:06.579Z,7.81
2017-12-26T07:08:34.976Z,8.31
2017-12-26T07:11:03.366Z,7.49
2017-12-26T07:13:31.702Z,7.92
2017-12-26T07:16:00.046Z,7.98
2017-12-26T07:18:28.481Z,8.35
2017-12-26T07:21:02.391Z,8.58
2017-12-26T07:23:30.758Z,8.10
2017-12-26T07:25:59.115Z,8.40
2017-12-26T07:28:27.517Z,7.73
2017-12-26T07:30:55.887Z,7.85
2017-12-26T07:33:24.267Z,7.71
2017-12-26T07:35:52.677Z,8.59
2017-12-26T07:38:21.022Z,8.52
2017-12-26T07:40:49.395Z,8.46
2017-12-26T07:43:17.765Z,8.09
2017-12-26T07:45:46.139Z,8.02
2017-12-26T07:48:14.549Z,8.50
2017-12-26T07:50:43.051Z,8.57
2017-12-26T07:53:11.624Z,8.69
2017-12-26T07:55:40.070Z,9.13
2017-12-26T07:58:08.461Z,8.16
2017-12-26T08:00:36.826Z,7.98
2017-12-26T08:03:05.197Z,8.88
2017-12-26T08:05:33.581Z,8.57
2017-12-26T08:08:01.975Z,8.68
2017-12-26T08:10:30.343Z,8.59
2017-12-26T08:12:58.695Z,8.17
2017-12-26T08:15:27.059Z,9.10
2017-12-26T08:17:55.473Z,9.14
2017-12-26T08:20:23.811Z,8.91
2017-12-26T08:22:52.158Z,8.71
2017-12-26T08:25:20.503Z,9.08
2017-12-26T08:27:48.948Z,8.67
2017-12-26T08:30:17.335Z,9.44
2017-12-26T08:32:45.679Z,8.48
2017-12-26T08:35:14.012Z,8.65
2017-12-26T08:37:42.361Z,8.81
2017-12-26T08:40:10.731Z,8.12
2017-12-26T08:42:39.112Z,9.37
2017-12-26T08:45:07.503Z,8.10
2017-12-26T08:47:35.842Z,8.82
2017-12-26T08:50:04.218Z,8.26
2017-12-26T08:52:32.561Z,8.73
2017-12-26T08:55:00.903Z,8.84
2017-12-26T08:57:29.267Z,8.48
2017-12-26T08:59:57.647Z,8.62
2017-12-26T09:02:25.996Z,8.48
2017-12-26T09:04:54.408Z,9.33
2017-12-26T09:07:22.781Z,9.14
2017-12-26T09:09:51.172Z,9.05
2017-12-26T09:12:19.633Z,9.38
2017-12-26T09:14:48.008Z,8.81
2017-12-26T09:17:16.430Z,9.24
2017-12-26T09:19:44.762Z,8.87
2017-12-26T09:22:13.158Z,8.97
2017-12-26T09:24:41.707Z,8.85
2017-12-26T09:27:10.032Z,9.14
2017-12-26T09:29:38.390Z,9.49
2017-12-26T09:32:06.723Z,8.65
2017-12-26T09:34:35.138Z,9.41
2017-12-26T09:37:03.488Z,8.68
2017-12-26T09:39:31.835Z,8.56
2017-12-26T09:42:00.182Z,8.23
2017-12-26T09:44:28.563Z,8.70
2017-12-26T09:46:56.970Z,8.56
2017-12-26T09:49:25.309Z,8.41
2017-12-26T09:51:53.692Z,8.56
2017-12-26T09:54:22.025Z,8.65
2017-12-26T09:56:50.364Z,8.42
2017-12-26T09:59:18.727Z,8.45
2017-12-26T10:01:47.104Z,8.30
2017-12-26T10:04:15.470Z,8.23
2017-12-26T10:06:43.818Z,7.91
2017-12-26T10:09:12.148Z,7.96
2017-12-26T10:11:40.565Z,7.99
2017-12-26T10:14:08.968Z,8.19
2017-12-26T10:16:37.318Z,7.42
2017-12-26T10:19:05.701Z,8.03
2017-12-26T10:21:34.051Z,7.73
2017-12-26T10:24:02.426Z,7.98
2017-12-26T10:26:30.772Z,8.34
2017-12-26T10:28:59.184Z,9.04
2017-12-26T10:31:27.532Z,8.89
2017-12-26T10:33:55.944Z,8.07
2017-12-26T10:36:24.321Z,8.64
2017-12-26T10:38:52.684Z,9.02
2017-12-26T10:41:21.037Z,8.25
2017-12-26T10:43:49.398Z,8.80
2017-12-26T10:46:17.754Z,8.48
2017-12-26T10:48:46.149Z,8.78
2017-12-26T10:51:14.501Z,8.05
2017-12-26T10:53:42.872Z,7.91
2017-12-26T10:56:11.260Z,8.15
2017-12-26T10:58:39.677Z,7.71
2017-12-26T11:01:08.094Z,7.56
2017-12-26T11:03:36.493Z,7.40
2017-12-26T11:06:04.866Z,7.73
2017-12-26T11:08:33.286Z,7.69
2017-12-26T11:11:01.667Z,7.33
2017-12-26T11:13:30.053Z,7.38
2017-12-26T11:15:58.414Z,7.58
2017-12-26T11:18:26.805Z,7.68
2017-12-26T11:20:55.189Z,8.04
2017-12-26T11:23:23.605Z,7.69
2017-12-26T11:25:52.065Z,7.69
2017-12-26T11:28:20.405Z,7.22
2017-12-26T11:30:49.397Z,7.80
2017-12-26T11:33:17.760Z,7.58
2017-12-26T11:35:46.148Z,7.33
2017-12-26T11:38:14.528Z,7.80
2017-12-26T11:40:42.888Z,7.76
2017-12-26T11:43:11.260Z,7.56
2017-12-26T11:45:39.726Z,7.46
2017-12-26T11:48:08.254Z,7.59
2017-12-26T11:50:36.691Z,7.81
2017-12-26T11:53:05.060Z,7.04
2017-12-26T11:55:33.441Z,7.19
2017-12-26T11:58:01.865Z,7.99
2017-12-26T12:00:30.278Z,7.92
2017-12-26T12:02:58.636Z,7.39
2017-12-26T12:05:28.563Z,7.62
2017-12-26T12:07:59.006Z,7.43
2017-12-26T12:10:31.240Z,7.85
2017-12-26T12:12:59.713Z,7.73
2017-12-26T12:15:28.101Z,7.61
2017-12-26T12:17:56.459Z,7.28
2017-12-26T12:20:24.808Z,8.00
2017-12-26T12:22:53.166Z,7.04
2017-12-26T12:25:21.568Z,7.50
2017-12-26T12:27:49.967Z,6.82
2017-12-26T12:30:18.304Z,7.45
2017-12-26T12:32:46.723Z,7.06
2017-12-26T12:35:15.088Z,7.22
2017-12-26T12:37:43.445Z,6.97
2017-12-26T12:40:11.809Z,7.55
2017-12-26T12:42:40.147Z,7.43
2017-12-26T12:45:08.566Z,7.10
2017-12-26T12:47:36.906Z,6.89
2017-12-26T12:50:05.263Z,7.15
2017-12-26T12:52:33.596Z,6.94
2017-12-26T12:55:01.950Z,7.36
2017-12-26T12:57:30.343Z,7.47
2017-12-26T12:59:58.720Z,7.92
2017-12-26T13:02:27.115Z,7.29
2017-12-26T13:04:55.515Z,7.59
2017-12-26T13:07:23.897Z,7.37
2017-12-26T13:09:52.236Z,7.46
2017-12-26T13:12:20.663Z,7.37
2017-12-26T13:14:49.077Z,7.40
2017-12-26T13:17:17.424Z,7.65
2017-12-26T13:19:45.768Z,7.68
2017-12-26T13:22:14.144Z,7.16
2017-12-26T13:24:42.484Z,7.39
2017-12-26T13:27:10.865Z,7.59
2017-12-26T13:29:39.259Z,7.50
2017-12-26T13:32:07.617Z,7.60
2017-12-26T13:34:35.962Z,7.63
2017-12-26T13:37:04.326Z,7.38
2017-12-26T13:39:32.711Z,7.54
2017-12-26T13:42:01.053Z,8.29
2017-12-26T13:44:29.390Z,8.03
2017-12-26T13:46:57.815Z,7.29
2017-12-26T13:49:26.149Z,7.52
2017-12-26T13:51:54.554Z,7.11
2017-12-26T13:54:22.887Z,7.11
2017-12-26T13:56:51.308Z,7.56
2017-12-26T13:59:19.641Z,7.70
2017-12-26T14:01:48.031Z,7.73
2017-12-26T14:04:16.401Z,7.80
2017-12-26T14:06:44.817Z,7.00
2017-12-26T14:09:13.196Z,7.22
2017-12-26T14:11:41.810Z,7.25
2017-12-26T14:14:10.159Z,7.63
2017-12-26T14:16:38.555Z,7.92
2017-12-26T14:19:06.893Z,7.94
2017-12-26T14:21:35.259Z,8.13
2017-12-26T14:24:03.624Z,8.31
2017-12-26T14:26:31.965Z,7.48
2017-12-26T14:29:00.354Z,8.07
2017-12-26T14:31:28.719Z,8.03
2017-12-26T14:33:57.067Z,7.77
2017-12-26T14:36:25.424Z,7.36
2017-12-26T14:41:36.821Z,7.72
2017-12-26T14:44:05.201Z,8.01
2017-12-26T14:46:33.560Z,7.91
2017-12-26T14:49:01.909Z,7.63
2017-12-26T14:51:30.264Z,7.20
2017-12-26T14:53:58.640Z,7.73
2017-12-26T14:56:26.992Z,7.64
2017-12-26T14:58:55.347Z,6.75
2017-12-26T15:01:23.706Z,7.39
2017-12-26T15:03:52.042Z,7.26
2017-12-26T15:06:20.407Z,7.28
2017-12-26T15:08:48.743Z,6.80
2017-12-26T15:11:17.117Z,7.42
2017-12-26T15:13:45.513Z,7.00
2017-12-26T15:16:13.897Z,7.26
2017-12-26T15:18:42.248Z,7.41
2017-12-26T15:21:10.585Z,7.50
2017-12-26T15:23:38.925Z,7.72
2017-12-26T15:26:07.321Z,7.87
2017-12-26T15:28:35.651Z,7.72
2017-12-26T15:31:04.047Z,7.50
2017-12-26T15:33:32.413Z,7.58
2017-12-26T15:36:00.796Z,7.63
2017-12-26T15:38:29.178Z,8.00
2017-12-26T15:40:57.577Z,6.94
2017-12-26T15:43:25.907Z,7.32
2017-12-26T15:45:54.321Z,8.09
2017-12-26T15:48:22.652Z,7.47
2017-12-26T15:50:50.990Z,6.83
2017-12-26T15:53:19.392Z,7.09
2017-12-26T15:55:47.766Z,7.26
2017-12-26T15:58:16.114Z,6.88
2017-12-26T16:00:44.520Z,6.82
2017-12-26T16:03:12.930Z,6.36
2017-12-26T16:05:41.382Z,6.73
2017-12-26T16:08:09.819Z,6.61
2017-12-26T16:10:38.210Z,7.26
2017-12-26T16:13:06.666Z,7.41
2017-12-26T16:15:35.035Z,7.03
2017-12-26T16:18:03.466Z,6.88
2017-12-26T16:20:31.888Z,6.95
2017-12-26T16:23:00.236Z,7.09
2017-12-26T16:25:28.724Z,6.62
2017-12-26T16:27:57.136Z,6.82
2017-12-26T16:30:25.731Z,6.56
2017-12-26T16:32:54.103Z,6.57
2017-12-26T16:35:22.580Z,6.52
2017-12-26T16:37:50.946Z,6.71
2017-12-26T16:40:19.311Z,7.65
2017-12-26T16:42:47.745Z,7.24
2017-12-26T16:45:16.086Z,7.01
2017-12-26T16:47:44.487Z,6.59
2017-12-26T16:50:12.866Z,7.06
2017-12-26T16:52:41.231Z,6.92
2017-12-26T16:55:09.663Z,7.44
2017-12-26T16:57:38.043Z,7.02
2017-12-26T17:00:06.461Z,6.56
2017-12-26T17:02:34.856Z,7.69
2017-12-26T17:05:03.427Z,7.67
2017-12-26T17:07:31.915Z,7.84
2017-12-26T17:10:00.445Z,7.04
2017-12-26T17:12:28.890Z,7.43
2017-12-26T17:14:57.286Z,7.54
2017-12-26T17:17:25.656Z,7.45
2017-12-26T17:19:54.061Z,7.54
2017-12-26T17:22:22.446Z,6.96
2017-12-26T17:24:50.920Z,7.23
2017-12-26T17:27:19.266Z,7.42
2017-12-26T17:29:47.695Z,7.68
2017-12-26T17:32:16.079Z,7.75
2017-12-26T17:34:44.500Z,7.22
2017-12-26T17:37:12.986Z,7.23
2017-12-26T17:39:41.345Z,7.30
2017-12-26T17:42:09.753Z,7.16
2017-12-26T17:44:38.103Z,7.07
2017-12-26T17:47:06.497Z,7.92
2017-12-26T17:49:34.846Z,7.13
2017-12-26T17:52:03.191Z,6.90
2017-12-26T17:54:31.557Z,6.90
2017-12-26T17:56:59.942Z,7.11
2017-12-26T17:59:28.356Z,6.59
2017-12-26T18:01:56.712Z,7.04
2017-12-26T18:04:25.078Z,6.52
2017-12-26T18:06:53.484Z,7.22
2017-12-26T18:09:21.852Z,6.50
2017-12-26T18:11:50.249Z,6.35
2017-12-26T18:14:18.609Z,6.68
2017-12-26T18:16:47.036Z,6.82
2017-12-26T18:19:15.384Z,6.77
2017-12-26T18:21:43.769Z,7.52
2017-12-26T18:24:12.143Z,7.56
2017-12-26T18:26:40.521Z,7.48
2017-12-26T18:29:08.937Z,7.09
2017-12-26T18:31:37.374Z,7.82
2017-12-26T18:34:05.747Z,7.28
2017-12-26T18:36:34.093Z,6.64
2017-12-26T18:39:02.503Z,6.85
2017-12-26T18:41:30.877Z,7.19
2017-12-26T18:43:59.258Z,6.65
2017-12-26T18:46:27.631Z,6.71
2017-12-26T18:48:55.969Z,6.79
2017-12-26T18:51:24.365Z,6.36
2017-12-26T18:53:52.803Z,7.25
2017-12-26T18:56:21.381Z,7.07
2017-12-26T18:58:49.814Z,7.20
2017-12-26T19:01:18.205Z,7.00
2017-12-26T19:03:46.684Z,6.82
2017-12-26T19:06:15.025Z,7.30
2017-12-26T19:08:43.371Z,8.07
2017-12-26T19:11:11.743Z,8.02
2017-12-26T19:13:40.315Z,7.14
2017-12-26T19:16:08.747Z,7.47
2017-12-26T19:18:37.163Z,6.56
2017-12-26T19:21:05.606Z,7.13
2017-12-26T19:23:34.024Z,7.24
2017-12-26T19:26:02.429Z,7.64
2017-12-26T19:28:30.852Z,7.41
2017-12-26T19:30:59.306Z,6.73
2017-12-26T19:33:27.698Z,6.83
2017-12-26T19:35:56.071Z,7.07
2017-12-26T19:38:24.429Z,7.63
2017-12-26T19:40:52.850Z,6.92
2017-12-26T19:43:21.325Z,7.33
2017-12-26T19:45:49.685Z,7.12
2017-12-26T19:48:18.054Z,7.12
2017-12-26T19:50:46.473Z,7.15
2017-12-26T19:53:14.862Z,7.65
2017-12-26T19:55:43.316Z,8.20
2017-12-26T19:58:11.648Z,7.70
2017-12-26T20:00:40.050Z,7.58
2017-12-26T20:03:08.428Z,7.68
2017-12-26T20:05:36.808Z,7.61
2017-12-26T20:08:05.175Z,7.25
2017-12-26T20:10:33.523Z,6.68
2017-12-26T20:13:01.886Z,6.97
2017-12-26T20:15:30.245Z,8.03
2017-12-26T20:17:58.681Z,8.05
2017-12-26T20:20:27.035Z,7.67
2017-12-26T20:22:55.373Z,8.10
2017-12-26T20:25:23.750Z,6.89
2017-12-26T20:27:52.189Z,7.15
2017-12-26T20:30:20.527Z,7.05
2017-12-26T20:32:48.940Z,7.83
2017-12-26T20:35:17.344Z,8.04
2017-12-26T20:37:45.706Z,7.91
2017-12-26T20:40:14.116Z,6.97
2017-12-26T20:42:42.458Z,7.18
2017-12-26T20:45:10.808Z,6.37
2017-12-26T20:47:39.205Z,7.03
2017-12-26T20:50:07.644Z,7.34
2017-12-26T20:52:36.218Z,6.87
2017-12-26T20:55:04.707Z,6.88
2017-12-26T20:57:33.043Z,6.99
2017-12-26T21:00:01.443Z,6.93
2017-12-26T21:02:29.823Z,7.06
2017-12-26T21:04:58.259Z,6.76
2017-12-26T21:07:26.658Z,7.67
2017-12-26T21:09:54.986Z,6.85
2017-12-26T21:12:23.466Z,7.13
2017-12-26T21:14:52.004Z,7.57
2017-12-26T21:17:20.452Z,6.55
2017-12-26T21:19:48.868Z,6.68
2017-12-26T21:22:17.531Z,6.79
2017-12-26T21:24:45.854Z,7.24
2017-12-26T21:27:14.235Z,7.15
2017-12-26T21:29:42.623Z,7.08
2017-12-26T21:32:10.994Z,7.11
2017-12-26T21:34:39.396Z,6.75
2017-12-26T21:37:07.778Z,6.41
2017-12-26T21:39:36.147Z,6.96
2017-12-26T21:42:04.577Z,6.45
2017-12-26T21:44:32.946Z,6.36
2017-12-26T21:47:01.338Z,6.67
2017-12-26T21:49:29.746Z,6.28
2017-12-26T21:51:58.096Z,5.90
2017-12-26T21:54:26.510Z,6.34
2017-12-26T21:56:54.913Z,6.21
2017-12-26T21:59:23.306Z,6.26
2017-12-26T22:01:51.674Z,5.92
2017-12-26T22:04:20.068Z,6.97
2017-12-26T22:06:48.436Z,6.37
2017-12-26T22:09:16.787Z,6.62
2017-12-26T22:11:45.270Z,6.76
2017-12-26T22:14:13.608Z,7.27
2017-12-26T22:16:41.991Z,6.95
2017-12-26T22:19:10.357Z,7.20
2017-12-26T22:21:38.744Z,7.34
2017-12-26T22:24:07.102Z,7.41
2017-12-26T22:26:35.480Z,7.88
2017-12-26T22:29:03.843Z,7.58
2017-12-26T22:31:32.268Z,7.73
2017-12-26T22:34:00.666Z,7.49
2017-12-26T22:36:29.026Z,8.07
2017-12-26T22:38:57.445Z,8.15
2017-12-26T22:41:25.839Z,7.96
2017-12-26T22:43:54.174Z,7.81
2017-12-26T22:46:22.586Z,7.50
2017-12-26T22:48:50.942Z,7.71
2017-12-26T22:51:19.332Z,7.48
2017-12-26T22:53:47.749Z,8.25
2017-12-26T22:56:16.148Z,8.19
2017-12-26T22:58:44.564Z,8.20
2017-12-26T23:01:13.065Z,7.29
2017-12-26T23:03:41.454Z,7.84
2017-12-26T23:06:09.836Z,7.77
2017-12-26T23:08:38.188Z,8.76
2017-12-26T23:11:06.554Z,7.44
2017-12-26T23:13:34.933Z,8.29
2017-12-26T23:19:03.332Z,8.56
2017-12-26T23:21:31.662Z,8.99
2017-12-26T23:27:06.604Z,8.00
2017-12-26T23:29:40.688Z,8.09
2017-12-26T23:32:14.702Z,7.46
2017-12-26T23:34:48.863Z,7.86
2017-12-26T23:37:22.850Z,6.44
2017-12-26T23:39:56.812Z,7.28
2017-12-26T23:45:32.886Z,7.64
2017-12-26T23:48:07.008Z,7.53
2017-12-26T23:50:40.994Z,8.10
2017-12-26T23:53:14.915Z,7.88
2017-12-26T23:55:48.853Z,7.79
2017-12-26T23:58:22.634Z,7.85
